createdAt,value
2023-04-17T00:00:27.854Z,95.20
2023-04-17T00:01:31.666Z,95.30
2023-04-17T00:02:39.846Z,95.40
2023-04-17T00:03:47.405Z,95.40
2023-04-17T00:04:52.578Z,95.50
2023-04-17T00:05:56.881Z,95.50
2023-04-17T00:07:03.351Z,95.50
2023-04-17T00:08:07.345Z,95.50
2023-04-17T00:09:10.543Z,95.50
2023-04-17T00:10:14.911Z,95.50
2023-04-17T00:11:18.854Z,95.30
2023-04-17T00:12:23.001Z,95.40
2023-04-17T00:13:25.757Z,95.20
2023-04-17T00:14:31.314Z,95.20
2023-04-17T00:15:34.270Z,95.10
2023-04-17T00:16:38.261Z,95.50
2023-04-17T00:17:44.169Z,95.60
2023-04-17T00:18:47.799Z,95.50
2023-04-17T00:19:50.609Z,95.60
2023-04-17T00:20:54.711Z,95.70
2023-04-17T00:21:57.271Z,95.70
2023-04-17T00:23:01.046Z,95.80
2023-04-17T00:24:03.842Z,95.90
2023-04-17T00:25:10.509Z,95.80
2023-04-17T00:26:13.229Z,95.80
2023-04-17T00:27:19.364Z,95.80
2023-04-17T00:28:22.116Z,96.00
2023-04-17T00:29:26.076Z,96.00
2023-04-17T00:30:30.133Z,96.10
2023-04-17T00:31:34.005Z,96.10
2023-04-17T00:32:36.870Z,96.20
2023-04-17T00:33:41.049Z,96.10
2023-04-17T00:34:43.671Z,96.10
2023-04-17T00:35:55.233Z,96.10
2023-04-17T00:36:59.297Z,96.20
2023-04-17T00:38:02.887Z,96.00
2023-04-17T00:39:05.579Z,96.10
2023-04-17T00:40:11.073Z,96.20
2023-04-17T00:41:13.722Z,96.20
2023-04-17T00:42:17.341Z,96.30
2023-04-17T00:43:19.948Z,96.30
2023-04-17T00:44:23.715Z,96.30
2023-04-17T00:45:26.379Z,96.30
2023-04-17T00:46:32.737Z,96.30
2023-04-17T00:47:35.336Z,96.30
2023-04-17T00:48:41.162Z,96.30
2023-04-17T00:49:44.569Z,96.30
2023-04-17T00:50:48.849Z,96.30
2023-04-17T00:51:51.921Z,96.30
2023-04-17T00:52:56.847Z,96.30
2023-04-17T00:54:00.662Z,96.30
2023-04-17T00:55:05.255Z,96.30
2023-04-17T00:56:09.380Z,96.30
2023-04-17T00:57:14.304Z,96.30
2023-04-17T00:58:18.088Z,96.30
2023-04-17T00:59:22.139Z,96.30
2023-04-17T01:00:26.022Z,96.30
2023-04-17T01:01:30.155Z,96.30
2023-04-17T01:02:34.298Z,96.30
2023-04-17T01:03:37.489Z,96.30
2023-04-17T01:04:41.377Z,96.30
2023-04-17T01:05:44.735Z,96.30
2023-04-17T01:06:48.435Z,96.30
2023-04-17T01:07:51.600Z,96.30
2023-04-17T01:08:56.336Z,96.30
2023-04-17T01:10:00.205Z,96.30
2023-04-17T01:11:03.971Z,96.30
2023-04-17T01:12:23.861Z,96.30
2023-04-17T01:13:27.497Z,96.30
2023-04-17T01:14:30.440Z,96.30
2023-04-17T01:15:34.867Z,96.30
2023-04-17T01:16:40.313Z,96.30
2023-04-17T01:17:44.251Z,96.30
2023-04-17T01:18:48.486Z,96.30
2023-04-17T01:19:52.223Z,96.30
2023-04-17T01:20:54.771Z,96.30
2023-04-17T01:21:58.468Z,96.30
2023-04-17T01:23:01.684Z,96.30
2023-04-17T01:24:08.132Z,96.30
2023-04-17T01:25:11.116Z,96.30
2023-04-17T01:26:21.087Z,96.30
2023-04-17T01:27:24.993Z,96.30
2023-04-17T01:28:28.624Z,96.30
2023-04-17T01:29:31.464Z,96.30
2023-04-17T01:30:35.384Z,96.30
2023-04-17T01:31:41.649Z,96.30
2023-04-17T01:32:45.423Z,96.30
2023-04-17T01:33:48.765Z,96.30
2023-04-17T01:34:52.349Z,96.30
2023-04-17T01:35:55.115Z,96.30
2023-04-17T01:36:58.983Z,96.30
2023-04-17T01:38:01.585Z,96.30
2023-04-17T01:39:07.647Z,96.30
2023-04-17T01:40:11.697Z,96.30
2023-04-17T01:41:15.515Z,96.30
2023-04-17T01:42:18.286Z,96.30
2023-04-17T01:43:22.068Z,96.30
2023-04-17T01:44:24.847Z,96.30
2023-04-17T01:45:28.698Z,96.30
2023-04-17T01:46:31.422Z,96.30
2023-04-17T01:47:35.410Z,96.30
2023-04-17T01:48:38.400Z,96.30
2023-04-17T01:49:42.089Z,96.30
2023-04-17T01:50:45.157Z,96.30
2023-04-17T01:51:48.972Z,96.30
2023-04-17T01:52:51.796Z,96.30
2023-04-17T01:53:55.952Z,96.30
2023-04-17T01:55:00.034Z,96.30
2023-04-17T01:56:05.476Z,96.30
2023-04-17T01:57:08.127Z,96.30
2023-04-17T01:58:11.751Z,96.30
2023-04-17T01:59:14.849Z,96.30
2023-04-17T02:00:19.772Z,96.30
2023-04-17T02:01:22.851Z,96.30
2023-04-17T02:02:26.960Z,96.30
2023-04-17T02:03:31.508Z,96.30
2023-04-17T02:04:35.387Z,96.30
2023-04-17T02:05:38.282Z,96.30
2023-04-17T02:06:42.496Z,96.30
2023-04-17T02:07:45.388Z,96.30
2023-04-17T02:08:49.180Z,96.30
2023-04-17T02:09:51.838Z,96.30
2023-04-17T02:10:56.838Z,96.30
2023-04-17T02:11:59.824Z,96.30
2023-04-17T02:13:03.555Z,96.30
2023-04-17T02:14:06.607Z,96.30
2023-04-17T02:15:11.811Z,96.30
2023-04-17T02:16:14.635Z,96.30
2023-04-17T02:17:19.028Z,96.30
2023-04-17T02:18:22.415Z,96.30
2023-04-17T02:19:26.248Z,96.30
2023-04-17T02:20:29.658Z,96.30
2023-04-17T02:21:35.052Z,96.30
2023-04-17T02:22:40.869Z,96.30
2023-04-17T02:23:45.069Z,96.30
2023-04-17T02:24:47.741Z,96.30
2023-04-17T02:25:51.717Z,96.30
2023-04-17T02:26:56.861Z,96.30
2023-04-17T02:28:00.492Z,96.30
2023-04-17T02:29:03.133Z,96.30
2023-04-17T02:30:08.558Z,96.30
2023-04-17T02:31:13.049Z,96.30
2023-04-17T02:32:17.810Z,96.30
2023-04-17T02:33:20.499Z,96.30
2023-04-17T02:34:24.791Z,96.30
2023-04-17T02:35:31.825Z,96.30
2023-04-17T02:36:35.633Z,96.30
2023-04-17T02:37:39.381Z,96.30
2023-04-17T02:38:43.126Z,96.30
2023-04-17T02:39:46.009Z,96.30
2023-04-17T02:40:49.970Z,96.30
2023-04-17T02:41:54.461Z,96.30
2023-04-17T02:42:58.325Z,96.30
2023-04-17T02:44:01.689Z,96.30
2023-04-17T02:45:06.863Z,96.30
2023-04-17T02:46:09.524Z,96.30
2023-04-17T02:47:13.386Z,96.30
2023-04-17T02:48:18.153Z,96.30
2023-04-17T02:49:21.907Z,96.30
2023-04-17T02:50:25.841Z,96.30
2023-04-17T02:51:42.067Z,96.30
2023-04-17T02:52:44.739Z,96.00
2023-04-17T02:53:49.300Z,96.20
2023-04-17T02:54:52.252Z,96.10
2023-04-17T02:55:56.194Z,96.10
2023-04-17T02:57:01.931Z,95.80
2023-04-17T02:58:06.145Z,95.80
2023-04-17T02:59:09.101Z,95.70
2023-04-17T03:00:14.948Z,95.80
2023-04-17T03:01:19.015Z,96.00
2023-04-17T03:02:22.706Z,95.90
2023-04-17T03:03:28.021Z,95.80
2023-04-17T03:04:31.171Z,95.90
2023-04-17T03:05:36.411Z,96.00
2023-04-17T03:06:39.550Z,95.70
2023-04-17T03:07:44.431Z,95.50
2023-04-17T03:08:48.269Z,95.70
2023-04-17T03:09:54.243Z,95.80
2023-04-17T03:10:57.141Z,95.90
2023-04-17T03:12:05.952Z,95.90
2023-04-17T03:13:08.984Z,96.10
2023-04-17T03:14:13.129Z,96.00
2023-04-17T03:15:18.618Z,96.10
2023-04-17T03:16:27.889Z,96.10
2023-04-17T03:17:33.080Z,96.10
2023-04-17T03:18:42.084Z,96.10
2023-04-17T03:19:44.558Z,96.10
2023-04-17T03:20:48.298Z,96.00
2023-04-17T03:21:50.908Z,96.10
2023-04-17T03:22:54.711Z,96.10
2023-04-17T03:23:57.371Z,96.10
2023-04-17T03:25:01.049Z,96.10
2023-04-17T03:26:12.341Z,96.10
2023-04-17T03:27:16.818Z,96.00
2023-04-17T03:28:22.126Z,96.00
2023-04-17T03:29:24.986Z,96.00
2023-04-17T03:30:28.646Z,95.90
2023-04-17T03:31:33.919Z,96.00
2023-04-17T03:32:38.791Z,95.90
2023-04-17T03:33:41.902Z,95.90
2023-04-17T03:34:46.145Z,96.00
2023-04-17T03:35:49.040Z,95.90
2023-04-17T03:36:52.682Z,95.90
2023-04-17T03:37:55.546Z,95.70
2023-04-17T03:39:00.058Z,95.80
2023-04-17T03:40:04.228Z,95.80
2023-04-17T03:41:08.218Z,95.80
2023-04-17T03:42:14.538Z,95.80
2023-04-17T03:43:19.640Z,95.80
2023-04-17T03:44:22.455Z,95.80
2023-04-17T03:45:27.207Z,95.80
2023-04-17T03:46:30.306Z,95.80
2023-04-17T03:47:34.091Z,95.70
2023-04-17T03:48:37.076Z,95.80
2023-04-17T03:49:41.332Z,95.80
2023-04-17T03:50:44.242Z,95.70
2023-04-17T03:51:48.406Z,95.50
2023-04-17T03:52:54.508Z,95.60
2023-04-17T03:53:58.589Z,95.50
2023-04-17T03:55:01.770Z,95.50
2023-04-17T03:56:07.160Z,95.50
2023-04-17T03:57:13.642Z,95.60
2023-04-17T03:58:18.958Z,95.60
2023-04-17T03:59:21.554Z,95.30
2023-04-17T04:00:26.192Z,95.30
2023-04-17T04:01:34.398Z,95.40
2023-04-17T04:02:49.382Z,95.40
2023-04-17T04:03:57.239Z,95.30
2023-04-17T04:05:01.594Z,95.40
2023-04-17T04:06:07.319Z,95.40
2023-04-17T04:07:11.369Z,95.50
2023-04-17T04:08:14.400Z,95.50
2023-04-17T04:09:22.749Z,95.40
2023-04-17T04:10:25.380Z,95.40
2023-04-17T04:11:29.231Z,95.50
2023-04-17T04:12:31.998Z,95.60
2023-04-17T04:13:37.015Z,95.60
2023-04-17T04:14:41.940Z,95.50
2023-04-17T04:15:46.819Z,95.10
2023-04-17T04:16:50.697Z,94.80
2023-04-17T04:17:54.417Z,95.30
2023-04-17T04:18:56.973Z,95.30
2023-04-17T04:20:00.768Z,95.40
2023-04-17T04:21:06.257Z,95.40
2023-04-17T04:22:13.731Z,95.40
2023-04-17T04:23:25.149Z,95.60
2023-04-17T04:24:29.045Z,95.50
2023-04-17T04:25:34.165Z,95.60
2023-04-17T04:26:53.843Z,95.60
2023-04-17T04:27:56.568Z,95.60
2023-04-17T04:29:03.665Z,95.70
2023-04-17T04:30:16.729Z,95.70
2023-04-17T04:31:22.591Z,95.80
2023-04-17T04:32:25.780Z,95.70
2023-04-17T04:33:29.647Z,95.60
2023-04-17T04:34:33.215Z,95.80
2023-04-17T04:35:38.257Z,95.60
2023-04-17T04:36:50.378Z,95.70
2023-04-17T04:38:06.324Z,95.80
2023-04-17T04:39:10.132Z,95.70
2023-04-17T04:40:15.001Z,95.80
2023-04-17T04:41:20.227Z,95.90
2023-04-17T04:42:23.950Z,95.90
2023-04-17T04:43:44.616Z,96.00
2023-04-17T04:44:49.199Z,96.00
2023-04-17T04:45:55.112Z,96.00
2023-04-17T04:46:58.683Z,96.00
2023-04-17T04:48:03.437Z,96.00
2023-04-17T04:49:06.880Z,95.90
2023-04-17T04:50:11.165Z,95.90
2023-04-17T04:51:38.121Z,95.90
2023-04-17T04:52:42.642Z,96.00
2023-04-17T04:53:58.140Z,95.90
2023-04-17T04:55:01.590Z,95.90
2023-04-17T04:56:07.846Z,95.90
2023-04-17T04:57:11.201Z,96.00
2023-04-17T04:58:16.318Z,96.00
2023-04-17T04:59:20.772Z,95.90
2023-04-17T05:00:34.289Z,95.90
2023-04-17T05:01:39.809Z,96.00
2023-04-17T05:02:43.936Z,96.00
2023-04-17T05:03:51.671Z,96.00
2023-04-17T05:04:59.056Z,96.00
2023-04-17T05:06:05.999Z,96.00
2023-04-17T05:07:21.673Z,96.00
2023-04-17T05:08:25.263Z,96.00
2023-04-17T05:09:36.733Z,96.00
2023-04-17T05:10:41.457Z,96.00
2023-04-17T05:11:45.668Z,96.00
2023-04-17T05:12:49.413Z,96.00
2023-04-17T05:13:52.697Z,96.00
2023-04-17T05:15:03.462Z,96.00
2023-04-17T05:16:08.388Z,95.90
2023-04-17T05:17:13.019Z,96.00
2023-04-17T05:18:16.560Z,96.00
2023-04-17T05:19:20.852Z,95.90
2023-04-17T05:20:32.214Z,95.90
2023-04-17T05:21:36.622Z,96.00
2023-04-17T05:22:39.432Z,95.90
2023-04-17T05:23:49.494Z,96.00
2023-04-17T05:24:52.502Z,96.00
2023-04-17T05:25:56.662Z,96.00
2023-04-17T05:27:02.028Z,96.00
2023-04-17T05:28:06.458Z,96.00
2023-04-17T05:29:09.872Z,96.00
2023-04-17T05:30:15.925Z,96.00
2023-04-17T05:31:24.716Z,95.90
2023-04-17T05:32:27.806Z,95.90
2023-04-17T05:33:35.767Z,95.90
2023-04-17T05:34:39.626Z,95.90
2023-04-17T05:35:44.033Z,95.80
2023-04-17T05:36:47.537Z,95.70
2023-04-17T05:37:51.979Z,95.70
2023-04-17T05:38:54.889Z,95.60
2023-04-17T05:40:00.689Z,95.70
2023-04-17T05:41:07.647Z,95.70
2023-04-17T05:42:10.716Z,95.60
2023-04-17T05:43:14.956Z,95.60
2023-04-17T05:44:18.166Z,95.60
2023-04-17T05:45:24.945Z,95.50
2023-04-17T05:46:30.407Z,95.60
2023-04-17T05:47:34.889Z,95.60
2023-04-17T05:48:39.209Z,95.50
2023-04-17T05:49:42.778Z,95.50
2023-04-17T05:50:47.446Z,95.50
2023-04-17T05:51:50.634Z,95.50
2023-04-17T05:52:58.183Z,95.20
2023-04-17T05:54:06.209Z,95.10
2023-04-17T05:55:11.263Z,95.10
2023-04-17T05:56:16.296Z,95.20
2023-04-17T05:57:20.260Z,95.20
2023-04-17T05:58:24.935Z,95.20
2023-04-17T05:59:31.969Z,95.20
2023-04-17T06:00:36.741Z,95.20
2023-04-17T06:01:43.805Z,95.30
2023-04-17T06:02:47.924Z,95.30
2023-04-17T06:03:58.489Z,95.20
2023-04-17T06:05:07.368Z,95.20
2023-04-17T06:06:11.058Z,95.20
2023-04-17T06:07:15.254Z,95.10
2023-04-17T06:08:18.447Z,95.10
2023-04-17T06:09:25.198Z,95.00
2023-04-17T06:10:30.190Z,95.10
2023-04-17T06:11:33.508Z,95.10
2023-04-17T06:12:37.722Z,94.90
2023-04-17T06:13:44.977Z,95.00
2023-04-17T06:14:48.161Z,94.90
2023-04-17T06:15:55.026Z,95.00
2023-04-17T06:16:59.743Z,94.80
2023-04-17T06:18:03.958Z,94.90
2023-04-17T06:19:07.804Z,94.80
2023-04-17T06:20:12.966Z,94.80
2023-04-17T06:21:16.123Z,94.80
2023-04-17T06:22:20.452Z,94.70
2023-04-17T06:23:23.310Z,94.70
2023-04-17T06:24:27.432Z,94.60
2023-04-17T06:25:31.492Z,94.50
2023-04-17T06:26:35.953Z,94.60
2023-04-17T06:27:43.314Z,94.60
2023-04-17T06:28:47.802Z,94.60
2023-04-17T06:29:50.715Z,94.60
2023-04-17T06:30:55.269Z,94.60
2023-04-17T06:32:03.940Z,94.60
2023-04-17T06:33:07.243Z,94.50
2023-04-17T06:34:12.337Z,94.50
2023-04-17T06:35:18.693Z,94.50
2023-04-17T06:36:33.473Z,94.50
2023-04-17T06:37:40.676Z,94.50
2023-04-17T06:38:43.574Z,94.40
2023-04-17T06:39:47.916Z,94.30
2023-04-17T06:40:52.701Z,94.30
2023-04-17T06:41:57.239Z,94.40
2023-04-17T06:43:04.696Z,94.40
2023-04-17T06:44:08.081Z,94.20
2023-04-17T06:45:23.224Z,94.20
2023-04-17T06:46:28.219Z,94.10
2023-04-17T06:47:34.001Z,94.20
2023-04-17T06:48:38.196Z,94.10
2023-04-17T06:49:41.456Z,94.10
2023-04-17T06:50:45.634Z,94.20
2023-04-17T06:51:50.404Z,93.70
2023-04-17T06:52:53.318Z,93.90
2023-04-17T06:53:57.384Z,93.80
2023-04-17T06:55:00.610Z,93.80
2023-04-17T06:56:05.119Z,93.70
2023-04-17T06:57:10.885Z,93.60
2023-04-17T06:58:13.944Z,93.60
2023-04-17T06:59:18.344Z,93.70
2023-04-17T07:00:23.069Z,93.80
2023-04-17T07:01:28.168Z,93.80
2023-04-17T07:02:32.757Z,93.80
2023-04-17T07:03:37.151Z,93.70
2023-04-17T07:04:40.509Z,93.60
2023-04-17T07:05:46.100Z,93.80
2023-04-17T07:06:50.194Z,93.80
2023-04-17T07:07:53.279Z,93.80
2023-04-17T07:08:57.286Z,93.70
2023-04-17T07:10:00.371Z,93.90
2023-04-17T07:11:04.796Z,93.80
2023-04-17T07:12:08.196Z,93.80
2023-04-17T07:13:13.218Z,93.80
2023-04-17T07:14:16.417Z,93.80
2023-04-17T07:15:20.901Z,93.90
2023-04-17T07:16:24.007Z,93.90
2023-04-17T07:17:28.551Z,93.80
2023-04-17T07:18:33.161Z,93.90
2023-04-17T07:19:38.543Z,93.80
2023-04-17T07:20:41.331Z,93.90
2023-04-17T07:21:47.137Z,93.60
2023-04-17T07:22:51.155Z,93.60
2023-04-17T07:23:55.216Z,93.80
2023-04-17T07:24:59.369Z,93.70
2023-04-17T07:26:03.535Z,93.50
2023-04-17T07:27:07.017Z,93.50
2023-04-17T07:28:11.889Z,93.70
2023-04-17T07:29:14.917Z,93.80
2023-04-17T07:30:19.217Z,93.30
2023-04-17T07:31:23.383Z,93.60
2023-04-17T07:32:26.437Z,93.50
2023-04-17T07:33:30.704Z,93.10
2023-04-17T07:34:37.646Z,93.20
2023-04-17T07:35:41.576Z,93.40
2023-04-17T07:36:45.794Z,93.50
2023-04-17T07:37:49.293Z,93.50
2023-04-17T07:38:53.177Z,93.60
2023-04-17T07:39:56.283Z,93.60
2023-04-17T07:41:00.837Z,93.70
2023-04-17T07:42:07.468Z,93.70
2023-04-17T07:43:11.683Z,93.70
2023-04-17T07:44:14.886Z,93.80
2023-04-17T07:45:19.651Z,93.80
2023-04-17T07:46:23.158Z,93.70
2023-04-17T07:47:27.500Z,93.70
2023-04-17T07:48:31.748Z,93.40
2023-04-17T07:49:37.386Z,93.50
2023-04-17T07:50:41.641Z,93.20
2023-04-17T07:51:44.673Z,93.20
2023-04-17T07:52:49.101Z,93.20
2023-04-17T07:53:52.141Z,93.20
2023-04-17T07:54:57.204Z,93.00
2023-04-17T07:56:01.755Z,93.00
2023-04-17T07:57:05.454Z,93.00
2023-04-17T07:58:11.438Z,92.80
2023-04-17T07:59:16.426Z,92.90
2023-04-17T08:00:21.591Z,92.80
2023-04-17T08:01:26.516Z,92.70
2023-04-17T08:02:29.804Z,92.70
2023-04-17T08:03:34.459Z,92.80
2023-04-17T08:04:40.554Z,92.70
2023-04-17T08:05:44.829Z,92.70
2023-04-17T08:06:49.110Z,92.60
2023-04-17T08:07:52.872Z,92.50
2023-04-17T08:08:56.115Z,92.60
2023-04-17T08:10:02.717Z,92.30
2023-04-17T08:11:05.910Z,92.30
2023-04-17T08:12:10.203Z,92.40
2023-04-17T08:13:13.122Z,92.50
2023-04-17T08:14:20.399Z,92.60
2023-04-17T08:15:24.874Z,92.50
2023-04-17T08:16:29.213Z,92.70
2023-04-17T08:17:33.779Z,92.80
2023-04-17T08:18:37.982Z,92.60
2023-04-17T08:19:43.567Z,92.70
2023-04-17T08:20:46.647Z,92.80
2023-04-17T08:21:52.083Z,92.70
2023-04-17T08:22:54.966Z,92.60
2023-04-17T08:23:59.016Z,92.70
2023-04-17T08:25:03.154Z,92.70
2023-04-17T08:26:07.336Z,92.40
2023-04-17T08:27:10.540Z,92.40
2023-04-17T08:28:14.652Z,92.40
2023-04-17T08:29:17.825Z,92.30
2023-04-17T08:30:22.152Z,92.30
2023-04-17T08:31:26.802Z,92.40
2023-04-17T08:32:29.920Z,92.30
2023-04-17T08:33:34.262Z,92.00
2023-04-17T08:34:38.049Z,91.70
2023-04-17T08:35:43.852Z,91.60
2023-04-17T08:36:47.999Z,91.50
2023-04-17T08:37:51.953Z,91.40
2023-04-17T08:38:55.061Z,91.40
2023-04-17T08:39:59.475Z,91.30
2023-04-17T08:41:09.218Z,91.10
2023-04-17T08:42:16.691Z,90.80
2023-04-17T08:43:23.896Z,90.60
2023-04-17T08:44:27.523Z,90.50
2023-04-17T08:45:32.000Z,90.40
2023-04-17T08:46:35.996Z,90.20
2023-04-17T08:47:41.678Z,90.20
2023-04-17T08:48:50.490Z,90.10
2023-04-17T08:49:56.152Z,90.20
2023-04-17T08:51:03.122Z,90.20
2023-04-17T08:52:08.372Z,90.20
2023-04-17T08:53:11.789Z,90.10
2023-04-17T08:54:16.054Z,89.70
2023-04-17T08:55:25.177Z,89.60
2023-04-17T08:56:30.233Z,89.50
2023-04-17T08:57:34.696Z,89.60
2023-04-17T08:58:39.297Z,89.60
2023-04-17T08:59:43.268Z,89.30
2023-04-17T09:00:47.698Z,88.80
2023-04-17T09:02:06.421Z,88.60
2023-04-17T09:03:12.559Z,88.10
2023-04-17T09:04:38.628Z,87.80
2023-04-17T09:05:46.380Z,87.60
2023-04-17T09:06:54.471Z,87.40
2023-04-17T09:08:11.757Z,87.10
2023-04-17T09:09:15.081Z,86.60
2023-04-17T09:10:19.330Z,86.20
2023-04-17T09:11:23.050Z,86.10
2023-04-17T09:12:28.373Z,86.00
2023-04-17T09:13:42.116Z,86.10
2023-04-17T09:14:45.192Z,86.30
2023-04-17T09:16:08.518Z,86.90
2023-04-17T09:17:11.598Z,86.70
2023-04-17T09:18:31.300Z,85.90
2023-04-17T09:19:35.267Z,84.70
2023-04-17T09:20:51.528Z,84.10
2023-04-17T09:23:03.594Z,82.40
2023-04-17T09:24:10.270Z,82.20
2023-04-17T09:25:17.922Z,81.70
2023-04-17T09:26:25.611Z,81.00
2023-04-17T09:27:30.128Z,81.00
2023-04-17T09:28:35.663Z,80.70
2023-04-17T09:30:01.577Z,80.40
2023-04-17T09:31:10.249Z,80.30
2023-04-17T09:32:16.508Z,80.30
2023-04-17T09:33:20.647Z,79.70
2023-04-17T09:34:24.347Z,79.10
2023-04-17T09:35:28.448Z,79.10
2023-04-17T09:36:34.465Z,78.80
2023-04-17T09:37:52.576Z,78.10
2023-04-17T09:40:01.971Z,76.70
2023-04-17T09:42:11.750Z,75.20
2023-04-17T09:43:16.149Z,74.20
2023-04-17T09:44:27.974Z,73.90
2023-04-17T09:45:37.018Z,73.70
2023-04-17T09:46:43.057Z,73.40
2023-04-17T09:47:49.001Z,73.10
2023-04-17T09:48:52.959Z,73.10
2023-04-17T09:49:58.216Z,72.40
2023-04-17T09:51:02.741Z,72.30
2023-04-17T09:52:06.899Z,72.00
2023-04-17T09:53:14.101Z,72.10
2023-04-17T09:54:18.094Z,72.00
2023-04-17T09:55:24.142Z,71.30
2023-04-17T09:56:29.984Z,70.80
2023-04-17T09:57:34.072Z,70.60
2023-04-17T09:58:39.493Z,69.60
2023-04-17T09:59:45.554Z,69.20
2023-04-17T10:00:50.209Z,69.00
2023-04-17T10:01:54.421Z,68.60
2023-04-17T10:03:00.898Z,68.00
2023-04-17T10:04:05.568Z,67.70
2023-04-17T10:05:12.675Z,66.90
2023-04-17T10:06:17.481Z,65.60
2023-04-17T10:07:21.837Z,66.70
2023-04-17T10:08:26.353Z,66.40
2023-04-17T10:09:30.255Z,66.00
2023-04-17T10:10:36.652Z,64.30
2023-04-17T10:11:42.939Z,63.10
2023-04-17T10:12:51.441Z,62.20
2023-04-17T10:14:13.418Z,61.60
2023-04-17T10:15:18.496Z,61.10
2023-04-17T10:16:34.567Z,61.80
2023-04-17T10:17:38.326Z,62.30
2023-04-17T10:18:42.542Z,61.30
2023-04-17T10:19:45.414Z,60.80
2023-04-17T10:20:50.706Z,60.60
2023-04-17T10:22:32.081Z,60.40
2023-04-17T10:23:40.944Z,59.90
2023-04-17T10:24:44.058Z,59.00
2023-04-17T10:25:51.356Z,59.70
2023-04-17T10:26:55.088Z,59.10
2023-04-17T10:28:01.536Z,59.00
2023-04-17T10:29:05.817Z,59.00
2023-04-17T10:30:13.244Z,58.70
2023-04-17T10:31:16.705Z,58.70
2023-04-17T10:32:21.741Z,58.30
2023-04-17T10:33:28.102Z,58.40
2023-04-17T10:34:37.738Z,59.60
2023-04-17T10:35:42.124Z,58.90
2023-04-17T10:36:52.674Z,59.40
2023-04-17T10:39:23.528Z,59.60
2023-04-17T10:40:32.103Z,59.60
2023-04-17T10:42:06.696Z,60.00
2023-04-17T10:43:17.566Z,59.70
2023-04-17T10:44:39.601Z,59.70
2023-04-17T10:46:22.363Z,60.10
2023-04-17T10:47:33.674Z,59.90
2023-04-17T10:48:42.542Z,60.40
2023-04-17T10:49:55.031Z,60.90
2023-04-17T10:51:01.471Z,60.70
2023-04-17T10:52:07.164Z,61.30
2023-04-17T10:54:04.267Z,61.60
2023-04-17T10:55:22.164Z,61.80
2023-04-17T10:56:29.381Z,62.20
2023-04-17T10:57:59.792Z,62.90
2023-04-17T10:59:06.462Z,63.00
2023-04-17T11:00:15.561Z,63.20
2023-04-17T11:01:19.943Z,63.40
2023-04-17T11:02:35.489Z,63.30
2023-04-17T11:03:40.630Z,62.50
2023-04-17T11:04:44.979Z,62.10
2023-04-17T11:05:53.983Z,62.20
2023-04-17T11:06:59.188Z,62.50
2023-04-17T11:08:02.076Z,62.90
2023-04-17T11:09:10.642Z,62.70
2023-04-17T11:10:18.142Z,61.40
2023-04-17T11:11:35.087Z,61.60
2023-04-17T11:12:48.806Z,60.80
2023-04-17T11:13:52.372Z,61.30
2023-04-17T11:15:04.364Z,60.40
2023-04-17T11:16:09.149Z,60.50
2023-04-17T11:17:12.264Z,60.30
2023-04-17T11:18:16.583Z,61.10
2023-04-17T11:19:21.946Z,60.80
2023-04-17T11:20:27.768Z,60.90
2023-04-17T11:21:31.425Z,61.10
2023-04-17T11:22:35.635Z,60.40
2023-04-17T11:23:39.703Z,60.70
2023-04-17T11:24:42.601Z,61.50
2023-04-17T11:25:48.135Z,60.70
2023-04-17T11:26:51.704Z,60.70
2023-04-17T11:27:59.804Z,59.60
2023-04-17T11:29:02.868Z,59.90
2023-04-17T11:30:08.955Z,60.30
2023-04-17T11:31:14.319Z,60.40
2023-04-17T11:32:19.854Z,60.40
2023-04-17T11:33:23.187Z,61.10
2023-04-17T11:34:28.289Z,60.00
2023-04-17T11:35:34.868Z,60.20
2023-04-17T11:36:37.946Z,59.90
2023-04-17T11:38:07.548Z,59.90
2023-04-17T11:39:11.742Z,59.70
2023-04-17T11:40:15.479Z,59.80
2023-04-17T11:41:20.922Z,59.50
2023-04-17T11:42:28.917Z,58.80
2023-04-17T11:43:38.208Z,58.80
2023-04-17T11:44:46.508Z,59.10
2023-04-17T11:45:54.058Z,59.30
2023-04-17T11:46:59.232Z,59.70
2023-04-17T11:48:04.015Z,59.80
2023-04-17T11:49:08.995Z,59.10
2023-04-17T11:50:15.083Z,59.30
2023-04-17T11:51:20.256Z,59.20
2023-04-17T11:52:23.308Z,59.40
2023-04-17T11:53:28.437Z,58.60
2023-04-17T11:54:35.110Z,58.60
2023-04-17T11:55:39.973Z,58.20
2023-04-17T11:57:01.861Z,58.30
2023-04-17T11:58:09.508Z,57.70
2023-04-17T11:59:12.821Z,57.40
2023-04-17T12:00:18.524Z,56.90
2023-04-17T12:01:25.002Z,56.30
2023-04-17T12:02:33.984Z,55.40
2023-04-17T12:03:38.928Z,56.00
2023-04-17T12:04:43.101Z,55.60
2023-04-17T12:06:00.616Z,56.10
2023-04-17T12:07:07.014Z,55.70
2023-04-17T12:08:09.931Z,56.30
2023-04-17T12:09:22.124Z,56.40
2023-04-17T12:10:37.014Z,56.90
2023-04-17T12:11:40.936Z,57.40
2023-04-17T12:12:45.363Z,57.20
2023-04-17T12:13:49.568Z,58.10
2023-04-17T12:14:53.460Z,57.60
2023-04-17T12:15:57.766Z,58.30
2023-04-17T12:17:02.028Z,58.50
2023-04-17T12:18:05.939Z,58.60
2023-04-17T12:19:10.761Z,59.00
2023-04-17T12:20:14.379Z,59.30
2023-04-17T12:21:19.438Z,59.50
2023-04-17T12:22:23.463Z,60.30
2023-04-17T12:23:27.839Z,60.50
2023-04-17T12:24:34.552Z,61.00
2023-04-17T12:25:37.829Z,61.30
2023-04-17T12:26:47.926Z,61.90
2023-04-17T12:27:53.021Z,62.00
2023-04-17T12:28:58.965Z,62.30
2023-04-17T12:30:01.884Z,62.00
2023-04-17T12:31:06.361Z,62.30
2023-04-17T12:32:10.551Z,61.80
2023-04-17T12:33:15.408Z,62.10
2023-04-17T12:34:19.480Z,62.30
2023-04-17T12:35:24.379Z,62.10
2023-04-17T12:36:28.543Z,62.50
2023-04-17T12:37:32.516Z,62.20
2023-04-17T12:38:36.530Z,62.30
2023-04-17T12:39:39.535Z,61.70
2023-04-17T12:40:45.719Z,62.20
2023-04-17T12:41:48.517Z,61.70
2023-04-17T12:42:54.271Z,61.00
2023-04-17T12:44:01.835Z,61.30
2023-04-17T12:45:06.829Z,61.50
2023-04-17T12:46:11.122Z,61.40
2023-04-17T12:47:14.394Z,61.60
2023-04-17T12:48:18.417Z,60.80
2023-04-17T12:49:21.746Z,61.10
2023-04-17T12:50:27.513Z,61.40
2023-04-17T12:51:31.319Z,61.10
2023-04-17T12:52:36.136Z,60.60
2023-04-17T12:53:40.719Z,60.80
2023-04-17T12:54:44.214Z,61.10
2023-04-17T12:55:48.917Z,60.90
2023-04-17T12:56:53.443Z,60.70
2023-04-17T12:57:59.410Z,59.70
2023-04-17T12:59:03.061Z,59.20
2023-04-17T13:00:11.024Z,59.80
2023-04-17T13:01:13.865Z,59.90
2023-04-17T13:02:19.185Z,59.90
2023-04-17T13:03:23.374Z,59.90
2023-04-17T13:04:26.824Z,59.80
2023-04-17T13:05:31.858Z,59.90
2023-04-17T13:06:34.968Z,60.20
2023-04-17T13:07:38.992Z,60.00
2023-04-17T13:08:43.080Z,59.60
2023-04-17T13:09:46.316Z,59.60
2023-04-17T13:10:50.367Z,59.80
2023-04-17T13:11:53.370Z,59.80
2023-04-17T13:12:59.313Z,59.90
2023-04-17T13:14:02.046Z,60.20
2023-04-17T13:15:07.503Z,60.70
2023-04-17T13:16:11.563Z,60.40
2023-04-17T13:17:17.389Z,60.80
2023-04-17T13:18:21.662Z,61.10
2023-04-17T13:19:24.963Z,61.30
2023-04-17T13:20:29.018Z,61.30
2023-04-17T13:21:32.727Z,61.00
2023-04-17T13:22:36.868Z,61.60
2023-04-17T13:23:40.722Z,61.70
2023-04-17T13:24:44.633Z,61.70
2023-04-17T13:25:55.358Z,61.50
2023-04-17T13:26:59.122Z,61.70
2023-04-17T13:28:04.556Z,61.60
2023-04-17T13:29:07.624Z,61.10
2023-04-17T13:30:12.710Z,61.30
2023-04-17T13:31:15.826Z,61.10
2023-04-17T13:32:20.076Z,61.10
2023-04-17T13:33:23.223Z,60.70
2023-04-17T13:34:27.269Z,60.80
2023-04-17T13:35:31.693Z,60.50
2023-04-17T13:36:35.137Z,60.50
2023-04-17T13:37:39.177Z,60.50
2023-04-17T13:38:42.136Z,60.40
2023-04-17T13:39:46.173Z,60.30
2023-04-17T13:40:50.436Z,60.40
2023-04-17T13:41:54.321Z,60.30
2023-04-17T13:42:58.905Z,59.90
2023-04-17T13:44:03.026Z,59.40
2023-04-17T13:45:08.799Z,60.10
2023-04-17T13:46:16.012Z,60.60
2023-04-17T13:47:20.011Z,60.30
2023-04-17T13:48:23.820Z,60.30
2023-04-17T13:49:27.386Z,60.30
2023-04-17T13:50:33.749Z,60.00
2023-04-17T13:51:36.806Z,60.40
2023-04-17T13:52:40.870Z,60.40
2023-04-17T13:53:44.141Z,60.70
2023-04-17T13:54:48.234Z,60.40
2023-04-17T13:55:51.375Z,60.40
2023-04-17T13:56:55.799Z,60.70
2023-04-17T13:57:58.461Z,60.80
2023-04-17T13:59:04.824Z,61.30
2023-04-17T14:00:10.756Z,61.00
2023-04-17T14:01:14.121Z,61.40
2023-04-17T14:02:18.050Z,61.20
2023-04-17T14:03:21.009Z,61.10
2023-04-17T14:04:24.945Z,61.40
2023-04-17T14:05:27.732Z,61.50
2023-04-17T14:06:34.050Z,61.30
2023-04-17T14:07:38.549Z,61.40
2023-04-17T14:08:44.230Z,61.10